TimeCST,TemperatureF,Dew PointF,Humidity,Sea Level PressureIn,VisibilityMPH,Wind Direction,Wind SpeedMPH,Gust SpeedMPH,PrecipitationIn,Events,Conditions,WindDirDegrees,DateUTC
12:53 AM,27.0,21.9,81,29.96,10.0,WNW,3.5,-,N/A,,Clear,290,2012-12-02 06:53:00
1:53 AM,28.0,21.9,78,29.95,10.0,WNW,3.5,-,N/A,,Clear,290,2012-12-02 07:53:00
2:53 AM,27.0,21.9,81,29.97,10.0,Calm,Calm,-,N/A,,Clear,0,2012-12-02 08:53:00
3:53 AM,26.1,21.0,81,29.97,10.0,South,3.5,-,N/A,,Clear,170,2012-12-02 09:53:00
4:53 AM,24.1,21.9,91,29.99,10.0,NW,4.6,-,N/A,,Clear,310,2012-12-02 10:53:00
5:53 AM,26.6,21.2,80,29.97,10.0,WNW,4.6,-,N/A,,Clear,300,2012-12-02 11:53:00
6:53 AM,23.0,19.0,85,30.03,10.0,NW,5.8,-,N/A,,Clear,320,2012-12-02 12:53:00
7:53 AM,24.1,19.9,84,30.04,10.0,Calm,Calm,-,N/A,,Clear,0,2012-12-02 13:53:00
8:53 AM,30.9,26.1,82,30.03,10.0,Calm,Calm,-,N/A,,Clear,0,2012-12-02 14:53:00
9:53 AM,37.9,28.0,68,30.00,10.0,Calm,Calm,-,N/A,,Clear,0,2012-12-02 15:53:00
10:53 AM,51.1,30.9,46,29.96,10.0,ESE,5.8,-,N/A,,Clear,120,2012-12-02 16:53:00
11:53 AM,64.0,30.9,29,29.91,10.0,South,16.1,-,N/A,,Clear,190,2012-12-02 17:53:00
12:53 PM,64.9,30.0,27,29.87,10.0,South,21.9,29.9,N/A,,Clear,180,2012-12-02 18:53:00
1:53 PM,66.9,30.0,25,29.81,10.0,South,12.7,29.9,N/A,,Clear,180,2012-12-02 19:53:00
2:53 PM,69.1,28.0,22,29.78,10.0,South,21.9,36.8,N/A,,Clear,190,2012-12-02 20:53:00
3:53 PM,66.9,27.0,22,29.77,10.0,South,19.6,29.9,N/A,,Clear,190,2012-12-02 21:53:00
4:53 PM,66.0,28.0,24,29.75,10.0,South,21.9,29.9,N/A,,Clear,180,2012-12-02 22:53:00
5:53 PM,62.1,30.0,30,29.76,10.0,South,12.7,21.9,N/A,,Clear,170,2012-12-02 23:53:00
6:53 PM,57.9,30.0,35,29.75,10.0,SSE,12.7,-,N/A,,Clear,160,2012-12-03 00:53:00
7:53 PM,55.0,30.9,40,29.75,10.0,SSE,10.4,-,N/A,,Clear,150,2012-12-03 01:53:00
8:53 PM,54.0,32.0,43,29.68,10.0,SSE,16.1,23.0,N/A,,Clear,160,2012-12-03 02:53:00
9:53 PM,52.0,32.0,47,29.65,10.0,SSE,16.1,-,N/A,,Clear,160,2012-12-03 03:53:00
10:53 PM,50.0,32.0,50,29.62,10.0,South,10.4,-,N/A,,Clear,170,2012-12-03 04:53:00
11:53 PM,44.1,30.9,60,29.60,10.0,SE,5.8,-,N/A,,Clear,130,2012-12-03 05:53:00